createdAt,value
2019-01-29T07:09:21.658Z,91.74
2019-01-29T07:10:04.924Z,91.74
2019-01-29T07:10:23.063Z,91.74
2019-01-29T07:12:22.847Z,91.74
2019-01-29T07:18:37.275Z,91.74
2019-01-29T07:24:54.202Z,91.74
2019-01-29T07:25:06.901Z,91.74
2019-01-29T07:25:47.856Z,91.74
2019-01-29T07:26:12.363Z,91.74
2019-01-29T07:29:08.850Z,91.74
2019-01-29T07:30:08.767Z,91.74
2019-01-29T08:01:11.967Z,89.62
2019-01-29T08:11:37.336Z,86.4
2019-01-29T08:13:01.845Z,86.4
2019-01-29T08:13:37.251Z,86.4
2019-01-29T08:15:05.743Z,86.4
2019-01-29T08:20:04.959Z,85.34
2019-01-29T08:25:04.548Z,84.38
2019-01-29T08:30:06.517Z,86.3
2019-01-29T08:35:04.914Z,87.6
2019-01-29T08:40:04.884Z,88.07
2019-01-29T08:45:05.121Z,88.51
2019-01-29T08:50:04.987Z,88.53
2019-01-29T08:55:11.767Z,88.36
2019-01-29T09:00:06.406Z,88.1
2019-01-29T09:05:04.957Z,88.51
2019-01-29T09:10:04.980Z,89.02
2019-01-29T09:15:06.180Z,89.21
2019-01-29T09:20:05.778Z,89.2
2019-01-29T09:25:06.210Z,89.13
2019-01-29T09:30:05.741Z,89.39
2019-01-29T09:33:07.145Z,89.39
2019-01-29T09:34:07.056Z,89.2
2019-01-29T09:35:07.046Z,89.2
2019-01-29T09:36:06.272Z,89.2
2019-01-29T09:37:06.855Z,89.2
2019-01-29T09:38:06.837Z,89.2
2019-01-29T09:39:07.530Z,89.65
2019-01-29T09:40:07.108Z,89.65
2019-01-29T09:41:06.999Z,89.65
2019-01-29T09:42:08.200Z,89.65
2019-01-29T09:43:06.498Z,89.65
2019-01-29T09:44:07.145Z,89.84
2019-01-29T09:45:08.644Z,89.84
2019-01-29T09:46:06.102Z,89.84
2019-01-29T09:49:07.473Z,89.2
2019-01-29T09:54:06.446Z,89.18
2019-01-29T09:59:07.522Z,88.13
2019-01-29T10:03:07.155Z,88.04
2019-01-29T10:08:06.436Z,87.05
2019-01-29T10:13:07.600Z,87.6
2019-01-29T10:18:06.647Z,87.01
2019-01-29T10:23:07.469Z,86.27
2019-01-29T10:28:06.448Z,85.72
2019-01-29T10:33:06.902Z,85.83
2019-01-29T10:38:06.937Z,85.73
2019-01-29T10:43:07.271Z,85.92
2019-01-29T10:48:07.301Z,84.16
2019-01-29T10:53:06.959Z,81.49
2019-01-29T10:57:07.554Z,83.05
2019-01-29T11:02:06.639Z,83.27
2019-01-29T11:07:06.633Z,82.73
2019-01-29T11:12:06.665Z,82.94
2019-01-29T11:17:06.479Z,82.06
2019-01-29T11:22:07.115Z,81.87
2019-01-29T11:27:07.141Z,81.6
2019-01-29T11:32:06.758Z,81.06
2019-01-29T11:37:06.694Z,81.13
2019-01-29T11:42:07.020Z,81.11
2019-01-29T11:47:07.012Z,81.26
2019-01-29T11:51:07.174Z,79.82
2019-01-29T11:56:07.103Z,79.81
2019-01-29T12:01:07.099Z,79.72
2019-01-29T12:06:07.220Z,81.28
2019-01-29T12:11:07.348Z,81.93
2019-01-29T12:16:07.312Z,81.6
2019-01-29T12:21:07.012Z,80.69
2019-01-29T12:26:13.649Z,80.47
2019-01-29T12:31:06.568Z,81.33
2019-01-29T12:36:06.580Z,81.83
2019-01-29T12:40:07.010Z,80.19
2019-01-29T12:45:08.246Z,80.54
2019-01-29T12:50:07.563Z,80.86
2019-01-29T12:55:07.575Z,80.29
2019-01-29T13:00:08.795Z,81.04
2019-01-29T13:05:08.048Z,81.61
2019-01-29T13:10:06.970Z,82.44
2019-01-29T13:15:08.157Z,80.93
2019-01-29T13:20:07.516Z,81.52
2019-01-29T13:25:06.119Z,81.29
2019-01-29T13:30:08.142Z,81.33
2019-01-29T13:34:07.115Z,80.99
2019-01-29T13:39:07.836Z,80.41
2019-01-29T13:44:06.440Z,80.81
2019-01-29T13:49:07.069Z,82.54
2019-01-29T13:54:06.897Z,82.74
2019-01-29T13:59:07.521Z,82.58
2019-01-29T14:04:07.033Z,82.54
2019-01-29T14:09:07.164Z,82.41
2019-01-29T14:14:07.162Z,82.01
2019-01-29T14:19:06.577Z,82.24
2019-01-29T14:24:06.513Z,82.91
2019-01-29T14:28:07.711Z,83.92
2019-01-29T14:33:07.596Z,84.16
2019-01-29T14:38:07.303Z,82.93
2019-01-29T14:43:06.666Z,83.11
2019-01-29T14:48:07.364Z,84.19
2019-01-29T14:53:07.515Z,86.34
2019-01-29T14:58:07.116Z,87.69
2019-01-29T15:03:07.236Z,87.73
2019-01-29T15:08:06.958Z,88.16
2019-01-29T15:13:06.557Z,88.72
2019-01-29T15:17:07.941Z,89.29
2019-01-29T15:22:07.143Z,89.75
2019-01-29T15:27:07.803Z,91.33
2019-01-29T15:32:07.670Z,92.92
2019-01-29T15:37:07.258Z,93.92
2019-01-29T15:42:06.774Z,94.07
2019-01-29T15:47:07.433Z,93.7
2019-01-29T15:52:07.522Z,93.82
2019-01-29T15:57:14.577Z,93.74
2019-01-29T16:02:06.543Z,93.92
2019-01-29T16:07:07.156Z,94.32
2019-01-29T16:12:06.642Z,94.54
2019-01-29T16:16:06.988Z,94.57
2019-01-29T16:21:06.728Z,94.59
2019-01-29T16:26:06.786Z,94.87
2019-01-29T16:31:07.540Z,95.31
2019-01-29T16:36:06.488Z,95.47
2019-01-29T16:41:07.491Z,95.38
2019-01-29T16:46:06.324Z,95.09
2019-01-29T16:51:07.100Z,94.96
2019-01-29T16:56:07.140Z,94.67
2019-01-29T17:01:07.554Z,94.51
2019-01-29T17:06:07.166Z,94.45
2019-01-29T17:10:06.700Z,94.38
2019-01-29T17:15:07.906Z,94.5
2019-01-29T17:20:07.435Z,94.52
2019-01-29T17:25:06.389Z,94.29
2019-01-29T17:30:08.530Z,93.52
2019-01-29T17:35:07.712Z,92.64
2019-01-29T17:40:07.021Z,92.42
2019-01-29T17:45:08.681Z,92.32
2019-01-29T17:50:06.606Z,92.36
2019-01-29T17:55:07.281Z,92.55
2019-01-29T17:59:07.391Z,92.7
2019-01-29T18:04:07.502Z,92.8
2019-01-29T18:09:07.920Z,93
2019-01-29T18:14:07.554Z,93.02
2019-01-29T18:19:07.540Z,92.93
2019-01-29T18:24:06.546Z,92.81
2019-01-29T18:29:07.289Z,92.87
2019-01-29T18:34:07.229Z,92.65
2019-01-29T18:39:07.068Z,92.27
2019-01-29T18:44:06.995Z,91.92
2019-01-29T18:49:06.499Z,91.77
2019-01-29T18:53:07.286Z,91.77
2019-01-29T18:58:15.967Z,91.71
2019-01-29T19:03:07.188Z,91.56
2019-01-29T19:08:07.398Z,91.52
2019-01-29T19:13:06.903Z,91.29
2019-01-29T19:18:07.199Z,91.13
2019-01-29T19:23:07.854Z,91.1
2019-01-29T19:28:06.753Z,90.9
2019-01-29T19:33:07.249Z,90.91
2019-01-29T19:38:06.276Z,90.93
2019-01-29T19:43:07.083Z,91.06
2019-01-29T19:47:06.588Z,91.19
2019-01-29T19:52:06.601Z,91.58
2019-01-29T19:57:07.331Z,91.9
2019-01-29T20:02:07.573Z,91.97
2019-01-29T20:07:07.442Z,91.87
2019-01-29T20:12:10.104Z,92.07
2019-01-29T20:17:07.154Z,92.37
2019-01-29T20:22:07.787Z,92.4
2019-01-29T20:27:06.755Z,92.67
2019-01-29T20:32:07.642Z,92.49
2019-01-29T20:37:07.605Z,92.71
2019-01-29T20:41:06.981Z,93.06
2019-01-29T20:46:07.465Z,93.27
2019-01-29T20:51:06.486Z,93.39
2019-01-29T20:56:07.224Z,93.54
2019-01-29T21:01:07.091Z,94.06
2019-01-29T21:06:07.074Z,94.38
2019-01-29T21:11:07.349Z,94.19
2019-01-29T21:16:07.022Z,94.62
2019-01-29T21:21:07.742Z,95.11
2019-01-29T21:26:06.700Z,95.15
2019-01-29T21:31:06.879Z,95.44
2019-01-29T21:35:07.005Z,95.6
2019-01-29T21:40:07.390Z,95.86
2019-01-29T21:45:09.764Z,96.09
2019-01-29T21:50:12.553Z,96.14
2019-01-29T21:55:06.738Z,96.28
2019-01-29T22:00:08.298Z,96.45
2019-01-29T22:05:06.578Z,96.93
2019-01-29T22:10:07.283Z,97.02
2019-01-29T22:15:08.523Z,97.05
2019-01-29T22:20:06.977Z,96.92
2019-01-29T22:25:07.501Z,96.97
2019-01-29T22:29:06.249Z,96.9
2019-01-29T22:34:07.416Z,96.84
2019-01-29T22:39:06.789Z,96.92
2019-01-29T22:44:07.471Z,97.02
2019-01-29T22:49:07.234Z,96.94
2019-01-29T22:54:06.974Z,96.79
2019-01-29T22:59:06.986Z,96.57
2019-01-29T23:04:07.388Z,96.35
2019-01-29T23:09:07.787Z,96.29
2019-01-29T23:14:07.181Z,96.6
2019-01-29T23:18:05.950Z,96.7
2019-01-29T23:23:06.717Z,96.7
2019-01-29T23:28:06.916Z,96.82
2019-01-29T23:33:07.059Z,96.63
2019-01-29T23:38:05.960Z,96.69
2019-01-29T23:43:06.949Z,96.52
2019-01-29T23:48:06.230Z,96.5
2019-01-29T23:53:06.872Z,96.44
2019-01-29T23:58:06.914Z,96.32
